Time;durP1;ratioP1;P1;durP2;ratioP2;P2;SDS_P1;SDS_P2;PMS_P1;PMS_P2;Temp;Humidity;BMP_temperature;BMP_pressure;BME280_temperature;BME280_humidity;BME280_pressure;Samples;Min_cycle;Max_cycle;Signal;HPM_P1;HPM_P2
2021/04/27 00:02:13;;;;;;;6.78;2.80;;;;;;;3.51;47.58;96448.72;1744756;82;21119;-77
2021/04/27 00:04:39;;;;;;;15.63;8.78;;;;;;;3.49;48.74;96454.47;1727892;81;21232;-80
2021/04/27 00:07:05;;;;;;;19.92;13.15;;;;;;;3.39;48.13;96445.47;1725987;82;21142;-80
2021/04/27 00:09:34;;;;;;;17.30;11.53;;;;;;;3.33;48.33;96446.03;1732014;82;21099;-80
2021/04/27 00:11:59;;;;;;;16.42;10.35;;;;;;;3.32;49.25;96445.69;1739053;81;21095;-77
2021/04/27 00:14:26;;;;;;;21.20;13.32;;;;;;;3.35;49.69;96444.13;1765208;80;21105;-77
2021/04/27 00:16:52;;;;;;;21.90;12.98;;;;;;;3.37;49.73;96433.24;1772797;80;21321;-80
2021/04/27 00:19:18;;;;;;;20.92;13.15;;;;;;;3.37;48.94;96433.24;1758263;80;21259;-80
2021/04/27 00:21:44;;;;;;;21.80;13.08;;;;;;;3.37;48.83;96435.81;1770919;80;21269;-80
2021/04/27 00:24:11;;;;;;;20.12;12.15;;;;;;;3.36;48.32;96435.95;1762073;80;21278;-80
2021/04/27 00:26:37;;;;;;;21.40;13.20;;;;;;;3.33;48.97;96431.09;1775971;80;21327;-80
2021/04/27 00:29:06;;;;;;;24.35;14.35;;;;;;;3.28;49.36;96430.22;1765582;80;21113;-80
2021/04/27 00:31:33;;;;;;;24.55;13.70;;;;;;;3.27;49.79;96423.47;1724143;81;21121;-80
2021/04/27 00:33:59;;;;;;;22.27;12.80;;;;;;;3.26;50.46;96427.79;1740057;81;21076;-80
2021/04/27 00:36:26;;;;;;;19.52;12.53;;;;;;;3.26;50.89;96426.98;1717376;82;21429;-80
2021/04/27 00:38:53;;;;;;;16.97;10.25;;;;;;;3.26;50.42;96424.41;1731433;82;21094;-80
2021/04/27 00:41:19;;;;;;;15.65;9.38;;;;;;;3.24;49.71;96423.23;1726550;82;21252;-80
2021/04/27 00:43:46;;;;;;;12.93;8.13;;;;;;;3.22;49.48;96411.48;1725668;82;21078;-80
2021/04/27 00:46:12;;;;;;;14.15;8.00;;;;;;;3.22;49.58;96407.62;1724717;82;21130;-80
2021/04/27 00:48:38;;;;;;;9.03;6.25;;;;;;;3.21;50.05;96401.69;1724278;82;21325;-80
2021/04/27 00:51:04;;;;;;;10.23;5.37;;;;;;;3.20;50.36;96397.97;1726027;82;21134;-80
2021/04/27 00:53:30;;;;;;;9.88;6.12;;;;;;;3.17;50.58;96395.20;1725316;82;21459;-80
2021/04/27 00:55:56;;;;;;;6.33;4.35;;;;;;;3.15;50.99;96393.72;1708365;82;21131;-80
2021/04/27 00:58:22;;;;;;;5.08;3.90;;;;;;;3.13;51.14;96387.45;1725915;82;21476;-77
2021/04/27 01:00:48;;;;;;;5.72;4.10;;;;;;;3.13;50.40;96381.50;1800423;78;21104;-77
2021/04/27 01:03:15;;;;;;;6.97;4.45;;;;;;;3.14;49.78;96384.41;1800493;78;21101;-77
2021/04/27 01:05:41;;;;;;;6.72;4.37;;;;;;;3.15;50.67;96379.61;1763866;80;21144;-77
2021/04/27 01:08:42;;;;;;;6.40;3.80;;;;;;;3.15;51.90;96381.70;1801991;78;21110;-78
2021/04/27 01:11:31;;;;;;;5.67;3.90;;;;;;;3.16;51.93;96379.94;1764284;80;21109;-77
2021/04/27 01:14:11;;;;;;;5.47;3.83;;;;;;;3.14;52.26;96382.64;1759083;80;21277;-77
2021/04/27 01:16:41;;;;;;;4.95;3.77;;;;;;;3.11;52.25;96382.11;1760494;80;21372;-80
2021/04/27 01:19:09;;;;;;;6.30;3.40;;;;;;;3.08;52.51;96383.64;1766267;80;21126;-81
2021/04/27 01:21:35;;;;;;;6.42;3.62;;;;;;;3.05;52.82;96378.31;1795520;78;21135;-81
2021/04/27 01:24:24;;;;;;;5.37;3.27;;;;;;;3.03;53.07;96384.53;1787000;78;21093;-81
2021/04/27 01:26:52;;;;;;;4.17;3.10;;;;;;;3.01;53.33;96377.77;1799889;78;21338;-80
2021/04/27 01:29:22;;;;;;;5.40;3.22;;;;;;;2.96;53.15;96381.23;1809376;78;21351;-78
2021/04/27 01:31:51;;;;;;;4.60;3.37;;;;;;;2.97;53.34;96384.12;1794581;78;21094;-77
2021/04/27 01:34:23;;;;;;;5.22;2.98;;;;;;;2.96;53.41;96382.52;1802713;78;21116;-81
2021/04/27 01:36:51;;;;;;;4.42;3.02;;;;;;;2.96;53.53;96385.55;1798123;78;21282;-78
2021/04/27 01:39:17;;;;;;;5.60;3.27;;;;;;;2.95;53.58;96386.02;1792829;78;21117;-77
2021/04/27 01:41:43;;;;;;;5.42;4.05;;;;;;;2.97;53.70;96388.45;1769892;80;21149;-77
2021/04/27 01:44:09;;;;;;;6.83;3.60;;;;;;;2.96;53.88;96383.80;1767757;79;21200;-79
2021/04/27 01:46:35;;;;;;;7.65;4.05;;;;;;;2.98;54.65;96385.75;1768963;79;21130;-78
2021/04/27 01:49:01;;;;;;;4.80;3.52;;;;;;;2.98;54.91;96381.90;1778636;79;21097;-77
2021/04/27 01:51:27;;;;;;;5.70;3.55;;;;;;;2.98;55.11;96383.66;1778056;79;21390;-77
2021/04/27 01:53:53;;;;;;;7.35;4.12;;;;;;;2.98;55.38;96378.05;1772743;79;21122;-77
2021/04/27 01:56:24;;;;;;;6.47;4.40;;;;;;;2.99;55.39;96382.70;1741020;81;21071;-77
2021/04/27 01:58:50;;;;;;;10.53;5.53;;;;;;;2.97;54.72;96380.75;1801136;78;21287;-77
2021/04/27 02:01:16;;;;;;;7.72;4.90;;;;;;;2.95;54.26;96377.04;1798095;78;21106;-78
2021/04/27 02:03:44;;;;;;;7.83;5.25;;;;;;;2.95;53.92;96380.08;1794704;78;21089;-78
2021/04/27 02:06:11;;;;;;;8.75;6.03;;;;;;;2.94;53.68;96381.03;1801384;78;21330;-78
2021/04/27 02:08:41;;;;;;;9.13;5.20;;;;;;;2.93;53.57;96378.13;1796323;78;21109;-78
2021/04/27 02:11:07;;;;;;;6.00;4.53;;;;;;;2.93;53.75;96378.13;1795805;78;21102;-77
2021/04/27 02:13:33;;;;;;;6.25;4.25;;;;;;;2.93;54.42;96374.27;1804368;78;21072;-80
2021/04/27 02:16:00;;;;;;;7.92;4.72;;;;;;;2.90;54.67;96376.61;1800587;78;21095;-80
2021/04/27 02:18:57;;;;;;;7.12;3.40;;;;;;;2.87;54.34;96376.08;1796911;78;21570;-80
2021/04/27 02:21:23;;;;;;;5.83;3.77;;;;;;;2.86;54.64;96373.17;1795220;78;21098;-80
2021/04/27 02:23:49;;;;;;;7.42;4.28;;;;;;;2.83;54.53;96371.69;1803005;78;21211;-80
2021/04/27 02:26:15;;;;;;;5.35;3.15;;;;;;;2.82;54.58;96367.98;1770922;78;21399;-80
2021/04/27 02:28:42;;;;;;;4.35;2.72;;;;;;;2.80;55.04;96367.30;1748691;78;21141;-80
2021/04/27 02:31:07;;;;;;;4.12;3.02;;;;;;;2.76;55.24;96369.30;1792797;78;21136;-78
2021/04/27 02:33:34;;;;;;;3.87;3.15;;;;;;;2.72;55.31;96364.11;1790290;78;21108;-78
2021/04/27 02:36:01;;;;;;;8.28;4.35;;;;;;;2.68;55.28;96364.05;1795530;78;21413;-78
2021/04/27 02:38:27;;;;;;;5.67;3.33;;;;;;;2.61;55.67;96361.21;1796250;78;21489;-78
2021/04/27 02:40:54;;;;;;;4.78;3.15;;;;;;;2.58;55.51;96368.34;1799368;78;21127;-80
2021/04/27 02:43:21;;;;;;;4.10;3.12;;;;;;;2.54;55.46;96364.42;1798969;78;21176;-80
2021/04/27 02:45:47;;;;;;;4.30;3.55;;;;;;;2.47;55.54;96367.19;1801409;78;21092;-80
2021/04/27 02:48:16;;;;;;;4.97;3.40;;;;;;;2.41;55.57;96365.94;1801077;78;21078;-80
2021/04/27 02:50:55;;;;;;;5.12;3.65;;;;;;;2.36;55.49;96366.81;1797962;78;21109;-80
2021/04/27 02:53:21;;;;;;;6.12;3.55;;;;;;;2.30;55.75;96369.44;1796580;78;21407;-80
2021/04/27 02:55:48;;;;;;;5.00;3.72;;;;;;;2.24;55.98;96375.55;1796273;78;21259;-80
2021/04/27 02:58:15;;;;;;;16.95;11.93;;;;;;;2.17;55.83;96373.17;1802104;78;21117;-80
2021/04/27 03:00:41;;;;;;;16.30;10.45;;;;;;;2.09;55.47;96371.24;1804533;78;21062;-80
2021/04/27 03:03:08;;;;;;;16.67;10.63;;;;;;;2.06;55.63;96369.75;1796778;78;21086;-80
2021/04/27 03:05:35;;;;;;;13.15;8.75;;;;;;;2.03;55.94;96371.30;1802160;78;21367;-80
2021/04/27 03:08:01;;;;;;;12.50;7.83;;;;;;;1.97;55.82;96371.83;1797054;78;21059;-80
2021/04/27 03:10:27;;;;;;;11.33;8.18;;;;;;;1.91;55.93;96371.04;1784162;78;21304;-80
2021/04/27 03:12:53;;;;;;;9.43;6.25;;;;;;;1.84;56.33;96364.81;1802950;78;21337;-80
2021/04/27 03:15:19;;;;;;;7.55;5.00;;;;;;;1.77;56.15;96367.53;1763894;80;21251;-80
2021/04/27 03:17:45;;;;;;;6.70;4.28;;;;;;;1.70;55.96;96371.08;1733110;80;21141;-80
2021/04/27 03:20:13;;;;;;;4.97;3.50;;;;;;;1.62;56.38;96364.48;1743407;80;21106;-80
2021/04/27 03:22:39;;;;;;;6.83;4.00;;;;;;;1.58;56.81;96367.44;1741466;81;21141;-80
2021/04/27 03:25:06;;;;;;;5.47;3.50;;;;;;;1.50;56.76;96367.61;1766205;80;21089;-80
2021/04/27 03:27:32;;;;;;;7.30;3.60;;;;;;;1.42;56.79;96366.13;1761057;80;21456;-77
2021/04/27 03:29:59;;;;;;;6.42;4.00;;;;;;;1.37;56.85;96366.17;1763088;80;21160;-78
2021/04/27 03:32:25;;;;;;;4.72;3.70;;;;;;;1.29;57.46;96369.34;1759883;80;21075;-78
2021/04/27 03:34:52;;;;;;;4.60;3.50;;;;;;;1.25;57.68;96371.00;1766820;80;22084;-78
2021/04/27 03:37:18;;;;;;;5.25;3.62;;;;;;;1.19;58.15;96366.73;1764603;80;21447;-77
2021/04/27 03:39:44;;;;;;;4.15;3.27;;;;;;;1.17;57.84;96367.33;1764297;80;21109;-76
2021/04/27 03:42:10;;;;;;;5.08;3.77;;;;;;;1.16;58.25;96363.16;1768688;80;21102;-77
2021/04/27 03:44:36;;;;;;;6.87;3.77;;;;;;;1.13;58.60;96364.66;1761588;80;21120;-77
2021/04/27 03:47:03;;;;;;;4.85;4.03;;;;;;;1.10;58.75;96366.19;1759309;80;21421;-77
2021/04/27 03:49:29;;;;;;;6.42;3.92;;;;;;;1.08;58.77;96360.38;1764820;80;21088;-76
2021/04/27 03:51:55;;;;;;;5.58;3.98;;;;;;;1.06;58.61;96362.73;1767802;80;21164;-77
2021/04/27 03:54:21;;;;;;;5.85;4.25;;;;;;;1.05;58.82;96360.64;1767535;80;21116;-77
2021/04/27 03:56:47;;;;;;;5.87;3.98;;;;;;;1.05;58.99;96361.91;1765479;80;21123;-77
2021/04/27 03:59:13;;;;;;;5.47;4.00;;;;;;;1.04;58.83;96362.85;1747008;81;21110;-77
2021/04/27 04:01:39;;;;;;;8.95;5.15;;;;;;;1.04;58.77;96369.72;1745664;81;21170;-81
2021/04/27 04:04:06;;;;;;;7.72;4.17;;;;;;;1.03;58.56;96368.91;1747479;81;21946;-80
2021/04/27 04:06:32;;;;;;;6.75;3.75;;;;;;;1.04;58.50;96371.81;1744175;81;21425;-78
2021/04/27 04:09:08;;;;;;;5.10;3.85;;;;;;;1.04;58.66;96370.53;1719880;81;21232;-77
2021/04/27 04:11:34;;;;;;;7.65;3.62;;;;;;;1.05;58.69;96375.98;1745690;81;21233;-78
2021/04/27 04:14:00;;;;;;;4.55;3.90;;;;;;;1.07;58.82;96374.11;1744439;81;21124;-78
2021/04/27 04:16:26;;;;;;;4.87;3.95;;;;;;;1.05;58.97;96370.06;1749958;81;21094;-79
2021/04/27 04:18:52;;;;;;;5.22;3.60;;;;;;;1.04;59.03;96372.27;1745213;81;21256;-78
2021/04/27 04:21:19;;;;;;;4.87;3.92;;;;;;;1.04;59.36;96379.95;1746152;81;21102;-78
2021/04/27 04:23:46;;;;;;;4.10;3.55;;;;;;;1.02;59.01;96373.69;1745636;81;21312;-77
2021/04/27 04:26:13;;;;;;;5.50;3.50;;;;;;;1.07;59.37;96384.35;1740979;81;21325;-77
2021/04/27 04:28:41;;;;;;;5.90;3.70;;;;;;;1.07;59.68;96381.79;1742322;81;21168;-79
2021/04/27 04:31:07;;;;;;;7.17;4.03;;;;;;;1.08;59.64;96383.88;1742982;81;21521;-77
2021/04/27 04:33:34;;;;;;;5.65;3.62;;;;;;;1.08;59.49;96391.56;1747521;81;21102;-77
2021/04/27 04:36:00;;;;;;;4.83;4.20;;;;;;;1.09;59.57;96384.23;1744480;81;21145;-77
2021/04/27 04:38:26;;;;;;;6.12;3.87;;;;;;;1.10;59.54;96393.05;1745610;81;21165;-77
2021/04/27 04:40:52;;;;;;;4.72;3.60;;;;;;;1.11;59.68;96390.84;1743588;81;21121;-77
2021/04/27 04:43:19;;;;;;;6.10;3.45;;;;;;;1.13;59.54;96388.16;1740831;81;21133;-77
2021/04/27 04:45:46;;;;;;;5.12;3.35;;;;;;;1.12;59.60;96388.63;1747505;81;21149;-80
2021/04/27 04:48:11;;;;;;;5.40;3.30;;;;;;;1.14;59.62;96394.45;1744453;81;21109;-80
2021/04/27 04:50:37;;;;;;;4.75;3.62;;;;;;;1.15;59.56;96395.27;1745129;81;21330;-80
2021/04/27 04:53:03;;;;;;;5.45;3.65;;;;;;;1.17;59.47;96394.67;1741717;81;21152;-81
2021/04/27 04:55:30;;;;;;;5.78;3.83;;;;;;;1.18;59.31;96398.39;1743748;81;21115;-80
2021/04/27 04:57:55;;;;;;;5.78;3.80;;;;;;;1.19;59.65;96397.45;1749325;81;21128;-80
2021/04/27 05:00:22;;;;;;;7.28;3.77;;;;;;;1.22;59.39;96396.86;1740699;81;21129;-81
2021/04/27 05:02:48;;;;;;;7.62;4.20;;;;;;;1.26;59.64;96395.66;1740560;81;21403;-82
2021/04/27 05:05:15;;;;;;;6.65;4.17;;;;;;;1.30;59.98;96393.19;1741077;81;21140;-83
2021/04/27 05:07:47;;;;;;;5.80;3.72;;;;;;;1.34;59.87;96388.19;1737640;81;21279;-85
2021/04/27 05:10:11;;;;;;;5.22;4.15;;;;;;;1.40;59.74;96397.92;1737375;81;21141;-80
2021/04/27 05:12:37;;;;;;;6.42;3.70;;;;;;;1.43;59.54;96398.95;1797262;78;21334;-80
2021/04/27 05:15:05;;;;;;;7.75;4.55;;;;;;;1.49;60.69;96398.00;1771932;78;21244;-80
2021/04/27 05:17:31;;;;;;;8.00;4.40;;;;;;;1.62;60.80;96396.97;1761475;80;21341;-80
2021/04/27 05:19:58;;;;;;;8.28;5.85;;;;;;;1.71;60.78;96398.80;1793092;78;21122;-77
2021/04/27 05:22:24;;;;;;;7.10;4.80;;;;;;;1.80;60.60;96396.77;1801374;78;21142;-77
2021/04/27 05:24:53;;;;;;;10.43;6.78;;;;;;;1.92;60.89;96403.87;1793412;78;21348;-77
2021/04/27 05:27:18;;;;;;;12.18;8.10;;;;;;;2.01;60.48;96403.13;1799874;78;21153;-77
2021/04/27 05:29:44;;;;;;;8.08;6.28;;;;;;;2.14;59.98;96405.01;1799523;78;21120;-79
2021/04/27 05:32:10;;;;;;;19.40;12.63;;;;;;;2.29;60.09;96413.97;1800141;78;21148;-77
2021/04/27 05:34:36;;;;;;;8.15;6.25;;;;;;;2.45;59.75;96407.55;1802007;78;21108;-77
2021/04/27 05:37:02;;;;;;;18.62;11.93;;;;;;;2.61;60.34;96410.42;1799301;78;21141;-77
2021/04/27 05:39:28;;;;;;;18.35;12.65;;;;;;;2.77;59.66;96417.14;1794346;78;21128;-77
2021/04/27 05:41:54;;;;;;;19.62;12.23;;;;;;;2.92;58.61;96408.55;1794966;78;21057;-80
2021/04/27 05:44:20;;;;;;;20.12;11.73;;;;;;;3.04;58.64;96411.81;1798185;78;21093;-77
2021/04/27 05:46:46;;;;;;;20.82;12.05;;;;;;;3.15;58.31;96416.36;1797023;78;22185;-77
2021/04/27 05:49:12;;;;;;;17.92;12.25;;;;;;;3.28;57.62;96413.05;1806695;78;21242;-77
2021/04/27 05:51:38;;;;;;;17.55;10.40;;;;;;;3.39;57.55;96413.37;1810118;78;21199;-77
2021/04/27 05:54:07;;;;;;;12.45;8.03;;;;;;;3.48;57.11;96417.70;1792607;78;21476;-78
2021/04/27 05:56:36;;;;;;;12.58;8.88;;;;;;;3.45;56.45;96397.43;1798527;78;21157;-78
2021/04/27 05:59:03;;;;;;;11.85;7.78;;;;;;;3.72;58.48;96421.58;1803903;78;21132;-78
2021/04/27 06:01:29;;;;;;;11.38;7.50;;;;;;;3.83;56.87;96420.95;1802103;78;21374;-79
2021/04/27 06:03:58;;;;;;;14.10;7.80;;;;;;;3.96;55.51;96419.84;1801405;78;21144;-79
2021/04/27 06:06:24;;;;;;;16.87;9.60;;;;;;;4.03;55.53;96422.18;1763190;80;21247;-81
2021/04/27 06:08:50;;;;;;;14.87;9.28;;;;;;;4.14;55.14;96417.69;1769262;80;21464;-81
2021/04/27 06:11:17;;;;;;;10.10;7.05;;;;;;;4.29;55.29;96418.52;1744691;81;21488;-77
2021/04/27 06:13:43;;;;;;;10.32;7.90;;;;;;;4.40;53.68;96417.05;1742703;81;21108;-82
2021/04/27 06:16:09;;;;;;;7.08;4.60;;;;;;;4.51;54.36;96419.42;1746015;81;21129;-81
2021/04/27 06:18:37;;;;;;;9.30;6.10;;;;;;;4.63;52.09;96426.00;1745736;81;21141;-81
2021/04/27 06:24:50;;;;;;;10.75;6.72;;;;;;;4.80;52.60;96417.98;1740908;81;21287;-80
2021/04/27 06:27:16;;;;;;;10.72;6.95;;;;;;;4.96;53.25;96425.87;1718680;81;21141;-78
2021/04/27 06:29:42;;;;;;;6.70;4.03;;;;;;;5.15;52.63;96423.64;1748383;81;21158;-78
2021/04/27 06:32:09;;;;;;;10.78;6.55;;;;;;;5.28;50.52;96424.09;1745099;81;21923;-82
2021/04/27 06:34:35;;;;;;;14.18;8.45;;;;;;;5.28;51.46;96420.22;1743815;81;21074;-78
2021/04/27 06:37:00;;;;;;;10.23;7.78;;;;;;;5.32;51.92;96418.16;1743903;81;21128;-78
2021/04/27 06:39:29;;;;;;;8.38;5.80;;;;;;;5.42;51.67;96422.28;1743473;81;21158;-81
2021/04/27 06:41:55;;;;;;;9.95;5.92;;;;;;;5.54;50.89;96416.91;1744248;81;21112;-78
2021/04/27 06:44:24;;;;;;;10.72;6.78;;;;;;;5.63;50.88;96427.59;1749711;81;21117;-79
2021/04/27 06:46:50;;;;;;;9.90;7.42;;;;;;;5.66;49.73;96421.64;1741648;81;21164;-78
2021/04/27 06:49:18;;;;;;;11.48;7.70;;;;;;;5.70;50.29;96424.28;1750632;81;21325;-81
2021/04/27 06:51:44;;;;;;;11.03;7.33;;;;;;;5.83;49.89;96419.18;1751696;81;21062;-79
2021/04/27 06:54:12;;;;;;;11.05;7.03;;;;;;;5.97;50.61;96425.11;1745435;81;21578;-81
2021/04/27 06:56:38;;;;;;;12.00;7.60;;;;;;;6.06;48.79;96422.11;1723341;81;21259;-82
2021/04/27 06:59:06;;;;;;;12.80;8.40;;;;;;;6.12;49.52;96422.78;1742200;81;21345;-80
2021/04/27 07:01:32;;;;;;;15.55;9.60;;;;;;;6.18;49.14;96422.16;1731963;82;21105;-81
2021/04/27 07:04:00;;;;;;;13.93;9.10;;;;;;;6.19;49.27;96419.45;1730051;82;21237;-78
2021/04/27 07:06:32;;;;;;;12.98;7.60;;;;;;;6.21;49.29;96425.75;1733801;82;21260;-78
2021/04/27 07:09:03;;;;;;;11.10;7.72;;;;;;;6.10;48.48;96397.63;1723370;81;21140;-81
2021/04/27 07:11:31;;;;;;;12.43;7.50;;;;;;;6.26;48.12;96429.96;1732983;82;21136;-79
2021/04/27 07:13:59;;;;;;;9.53;7.12;;;;;;;6.21;47.75;96430.91;1735836;81;21380;-78
2021/04/27 07:16:25;;;;;;;10.28;6.85;;;;;;;6.20;48.42;96433.97;1728217;81;21461;-79
2021/04/27 07:18:51;;;;;;;10.90;5.90;;;;;;;6.26;47.77;96441.09;1762705;80;21164;-78
2021/04/27 07:21:22;;;;;;;9.50;6.15;;;;;;;6.18;46.34;96436.35;1735197;81;21125;-77
2021/04/27 07:23:58;;;;;;;6.12;4.28;;;;;;;5.93;46.74;96441.37;1726245;82;21260;-81
2021/04/27 07:26:26;;;;;;;10.25;6.80;;;;;;;6.00;46.23;96442.37;1707720;82;21126;-78
2021/04/27 07:28:55;;;;;;;12.93;8.08;;;;;;;6.04;47.21;96437.75;1708450;82;21401;-80
2021/04/27 07:31:22;;;;;;;10.45;7.20;;;;;;;5.94;46.86;96442.19;1725430;82;21149;-80
2021/04/27 07:33:48;;;;;;;9.28;6.17;;;;;;;6.05;46.55;96444.52;1724132;82;21142;-81
2021/04/27 07:36:18;;;;;;;8.68;6.65;;;;;;;6.22;47.12;96440.27;1728798;82;21340;-78
2021/04/27 07:38:45;;;;;;;9.20;6.30;;;;;;;6.43;47.91;96435.52;1708548;82;21172;-78
2021/04/27 07:41:11;;;;;;;6.65;4.85;;;;;;;6.59;46.03;96440.77;1730654;81;21199;-78
2021/04/27 07:43:40;;;;;;;8.85;5.45;;;;;;;6.70;44.88;96431.94;1729337;82;21098;-78
2021/04/27 07:46:06;;;;;;;8.13;5.25;;;;;;;6.72;44.92;96431.30;1729424;81;21383;-80
2021/04/27 07:48:32;;;;;;;7.28;5.70;;;;;;;6.80;44.43;96434.37;1740734;81;21093;-79
2021/04/27 07:50:59;;;;;;;6.80;5.33;;;;;;;6.87;44.07;96432.31;1744570;81;21105;-81
2021/04/27 07:53:25;;;;;;;6.60;3.80;;;;;;;6.89;44.41;96434.25;1741889;81;21838;-79
2021/04/27 07:55:51;;;;;;;6.47;4.80;;;;;;;6.92;42.26;96433.13;1736386;81;21141;-79
2021/04/27 07:58:20;;;;;;;10.55;5.92;;;;;;;6.90;43.84;96424.73;1717725;82;21109;-79
2021/04/27 08:00:46;;;;;;;8.18;5.28;;;;;;;6.83;44.30;96425.85;1725323;82;21130;-77
2021/04/27 08:03:12;;;;;;;8.05;5.12;;;;;;;6.89;43.04;96430.86;1725469;82;21223;-80
2021/04/27 08:05:57;;;;;;;10.58;5.25;;;;;;;6.86;42.81;96434.57;1729278;82;21622;-87
2021/04/27 08:08:23;;;;;;;6.45;4.40;;;;;;;6.86;42.43;96424.72;1727218;82;21118;-78
2021/04/27 08:10:50;;;;;;;7.70;4.87;;;;;;;6.80;42.29;96426.14;1721865;82;21110;-78
2021/04/27 08:13:16;;;;;;;5.80;4.12;;;;;;;6.91;43.86;96430.22;1726500;82;21147;-78
2021/04/27 08:15:42;;;;;;;4.95;3.35;;;;;;;7.06;41.76;96427.34;1725306;82;21095;-78
2021/04/27 08:18:09;;;;;;;8.78;4.40;;;;;;;7.19;41.60;96425.11;1725926;82;21351;-81
2021/04/27 08:20:35;;;;;;;6.08;4.67;;;;;;;7.31;40.63;96427.37;1724995;82;21134;-78
2021/04/27 08:23:01;;;;;;;7.72;5.80;;;;;;;7.34;41.29;96430.95;1723948;82;21451;-79
2021/04/27 08:25:31;;;;;;;7.72;4.87;;;;;;;7.33;41.07;96428.05;1725341;82;21075;-78
2021/04/27 08:27:58;;;;;;;7.95;4.45;;;;;;;7.36;41.23;96429.02;1729465;82;21178;-80
2021/04/27 08:30:25;;;;;;;5.58;4.53;;;;;;;7.42;41.47;96421.90;1711485;81;21139;-81
2021/04/27 08:32:52;;;;;;;7.35;4.62;;;;;;;7.49;39.36;96426.77;1767967;80;21137;-78
2021/04/27 08:35:18;;;;;;;6.70;4.08;;;;;;;7.51;41.95;96426.11;1732453;81;21386;-78
2021/04/27 08:37:44;;;;;;;7.72;4.10;;;;;;;7.57;40.32;96425.45;1729441;81;21215;-78
2021/04/27 08:40:12;;;;;;;5.65;3.83;;;;;;;7.69;41.02;96424.66;1724367;82;22114;-80
2021/04/27 08:42:38;;;;;;;5.17;3.45;;;;;;;7.86;40.04;96428.04;1726633;82;21143;-78
2021/04/27 08:45:07;;;;;;;8.83;4.03;;;;;;;7.90;40.50;96435.79;1731781;82;21313;-79
2021/04/27 08:47:34;;;;;;;5.60;3.98;;;;;;;7.90;39.68;96430.61;1725908;81;21173;-78
2021/04/27 08:50:03;;;;;;;5.37;3.27;;;;;;;7.82;38.71;96421.91;1736087;82;21165;-79
2021/04/27 08:52:31;;;;;;;6.10;4.62;;;;;;;7.87;38.53;96421.89;1752669;81;21112;-79
2021/04/27 08:54:59;;;;;;;6.12;4.53;;;;;;;7.91;40.46;96427.05;1730938;82;21240;-81
2021/04/27 08:57:26;;;;;;;6.17;4.90;;;;;;;7.71;40.06;96426.11;1735538;82;21131;-81
2021/04/27 08:59:52;;;;;;;4.70;3.20;;;;;;;7.70;40.76;96420.61;1736410;81;21937;-77
2021/04/27 09:02:28;;;;;;;4.50;3.65;;;;;;;7.86;39.13;96419.80;1779234;80;21570;-80
2021/04/27 09:04:54;;;;;;;5.28;4.10;;;;;;;7.95;40.03;96425.75;1734469;81;21229;-78
2021/04/27 09:07:22;;;;;;;8.18;5.40;;;;;;;8.03;38.96;96419.28;1741957;81;21094;-78
2021/04/27 09:10:03;;;;;;;6.60;4.75;;;;;;;8.05;39.08;96410.86;1758102;80;21149;-78
2021/04/27 09:12:31;;;;;;;8.30;5.42;;;;;;;8.10;39.56;96408.09;1723375;82;21698;-77
2021/04/27 09:15:07;;;;;;;7.90;5.10;;;;;;;8.25;40.09;96413.88;1716840;82;21299;-81
2021/04/27 09:17:33;;;;;;;6.33;3.92;;;;;;;8.37;40.24;96405.63;1747777;81;21119;-82
2021/04/27 09:20:05;;;;;;;7.25;4.53;;;;;;;8.50;39.14;96397.83;1749488;80;21349;-81
2021/04/27 09:22:33;;;;;;;9.00;6.17;;;;;;;8.38;39.00;96402.06;1739937;80;21400;-81
2021/04/27 09:25:07;;;;;;;8.75;6.50;;;;;;;8.47;39.34;96396.87;1762297;80;21087;-78
2021/04/27 09:27:47;;;;;;;9.70;6.60;;;;;;;8.45;38.38;96401.38;1769411;80;21118;-81
2021/04/27 09:30:28;;;;;;;8.10;6.20;;;;;;;8.45;40.12;96397.50;1734435;80;21225;-82
2021/04/27 09:33:07;;;;;;;9.00;6.62;;;;;;;8.50;38.80;96393.94;1729370;80;21123;-79
2021/04/27 09:35:42;;;;;;;7.25;4.95;;;;;;;8.55;39.57;96396.33;1720804;80;21136;-79
2021/04/27 09:38:20;;;;;;;9.70;5.50;;;;;;;8.71;38.76;96398.05;1743436;81;21141;-81
2021/04/27 09:41:05;;;;;;;7.08;5.28;;;;;;;8.76;39.37;96395.74;1735975;80;21168;-78
2021/04/27 09:43:45;;;;;;;7.40;5.45;;;;;;;8.78;37.62;96382.62;1759893;79;23027;-78
2021/04/27 09:46:16;;;;;;;8.10;5.70;;;;;;;8.70;39.12;96400.31;1746264;80;21439;-81
2021/04/27 09:48:48;;;;;;;7.22;4.83;;;;;;;8.73;38.03;96377.95;1730738;80;21109;-78
2021/04/27 09:51:23;;;;;;;7.08;5.67;;;;;;;8.65;38.10;96374.13;1707548;82;21551;-77
2021/04/27 09:53:58;;;;;;;6.50;4.60;;;;;;;8.64;38.51;96384.17;1717975;82;21329;-77
2021/04/27 09:56:50;;;;;;;7.72;4.75;;;;;;;8.68;38.75;96379.77;1726265;80;21193;-77
2021/04/27 09:59:24;;;;;;;7.12;5.03;;;;;;;8.76;36.97;96378.91;1730073;80;21107;-80
2021/04/27 10:01:53;;;;;;;7.20;5.30;;;;;;;8.86;39.35;96382.59;1728238;80;21102;-80
2021/04/27 10:04:20;;;;;;;6.80;5.17;;;;;;;9.04;39.18;96375.34;1737711;80;21321;-80
2021/04/27 10:06:47;;;;;;;5.60;4.37;;;;;;;9.12;38.27;96373.20;1740568;80;21233;-77
2021/04/27 10:09:14;;;;;;;7.15;5.42;;;;;;;9.17;36.41;96366.52;1738793;80;21098;-77
2021/04/27 10:11:40;;;;;;;6.75;4.87;;;;;;;9.18;37.94;96377.69;1736174;82;21459;-78
2021/04/27 10:14:09;;;;;;;7.17;5.22;;;;;;;9.16;36.98;96370.09;1736697;80;21090;-78
2021/04/27 10:16:37;;;;;;;7.03;4.55;;;;;;;9.14;36.48;96367.36;1746582;80;21118;-78
2021/04/27 10:19:04;;;;;;;7.62;6.65;;;;;;;9.10;37.04;96363.47;1718822;82;21099;-77
2021/04/27 10:21:35;;;;;;;13.30;8.10;;;;;;;8.92;36.90;96346.91;1731974;80;21161;-78
2021/04/27 10:24:17;;;;;;;9.68;5.65;;;;;;;8.94;38.04;96358.71;1735557;80;21109;-77
2021/04/27 10:26:49;;;;;;;7.92;5.45;;;;;;;9.04;38.09;96361.09;1746207;80;21086;-79
2021/04/27 10:29:21;;;;;;;6.17;4.10;;;;;;;9.03;36.98;96362.07;1738301;80;21388;-77
2021/04/27 10:31:57;;;;;;;10.03;5.30;;;;;;;9.10;36.95;96355.20;1736152;80;21102;-76
2021/04/27 10:34:23;;;;;;;7.10;4.92;;;;;;;9.20;37.18;96353.69;1714947;80;21251;-79
2021/04/27 10:37:05;;;;;;;6.62;4.97;;;;;;;9.30;38.06;96343.90;1729249;80;21145;-78
2021/04/27 10:39:39;;;;;;;6.12;4.70;;;;;;;9.37;37.21;96345.30;1748047;80;21432;-80
2021/04/27 10:42:29;;;;;;;6.33;4.70;;;;;;;9.45;36.95;96336.16;1731846;80;21265;-78
2021/04/27 10:45:03;;;;;;;8.05;5.05;;;;;;;9.53;37.27;96333.48;1717957;81;21102;-78
2021/04/27 10:47:41;;;;;;;6.15;4.78;;;;;;;9.61;37.37;96336.02;1727647;81;21103;-79
2021/04/27 10:50:29;;;;;;;5.80;4.92;;;;;;;9.64;37.04;96327.87;1706211;81;21115;-79
2021/04/27 10:52:55;;;;;;;8.10;5.50;;;;;;;9.67;37.05;96333.20;1726186;81;21106;-78
2021/04/27 10:55:31;;;;;;;7.30;4.92;;;;;;;9.78;37.25;96330.18;1660131;81;21253;-79
2021/04/27 10:58:00;;;;;;;7.85;5.00;;;;;;;9.76;37.26;96322.58;1707407;82;21095;-79
2021/04/27 11:00:43;;;;;;;8.68;5.53;;;;;;;9.81;34.73;96316.84;1711838;81;21256;-79
2021/04/27 11:03:24;;;;;;;8.35;5.45;;;;;;;9.65;34.82;96311.33;1707155;82;21123;-81
2021/04/27 11:06:06;;;;;;;7.72;5.87;;;;;;;9.55;35.58;96299.89;1706882;82;21141;-78
2021/04/27 11:08:44;;;;;;;8.08;5.20;;;;;;;9.63;36.37;96310.70;1717964;81;21265;-77
2021/04/27 11:11:31;;;;;;;10.28;5.65;;;;;;;9.73;35.97;96316.42;1728119;82;21229;-78
2021/04/27 11:14:21;;;;;;;8.80;5.30;;;;;;;9.72;36.28;96314.81;1718713;81;21075;-79
2021/04/27 11:16:54;;;;;;;7.03;5.72;;;;;;;9.79;36.50;96314.92;1712843;81;21123;-81
2021/04/27 11:19:30;;;;;;;6.42;4.67;;;;;;;9.85;35.77;96316.80;1723528;82;21355;-79
2021/04/27 11:22:21;;;;;;;6.30;4.50;;;;;;;9.97;35.19;96314.56;1729110;81;21174;-79
2021/04/27 11:24:47;;;;;;;6.47;4.75;;;;;;;9.80;34.04;96301.77;1727654;81;21106;-79
2021/04/27 11:27:21;;;;;;;6.60;4.37;;;;;;;9.66;35.67;96299.16;1721571;81;21205;-77
2021/04/27 11:30:10;;;;;;;5.40;4.28;;;;;;;9.74;35.98;96303.76;1724063;81;21213;-81
2021/04/27 11:32:39;;;;;;;8.55;5.80;;;;;;;9.85;34.83;96296.03;1710763;82;21241;-77
2021/04/27 11:35:20;;;;;;;6.45;5.50;;;;;;;9.89;35.76;96292.09;1716931;81;21103;-77
2021/04/27 11:37:56;;;;;;;6.97;5.80;;;;;;;9.84;35.29;96291.34;1716804;81;21265;-77
2021/04/27 11:40:32;;;;;;;6.10;4.55;;;;;;;9.77;34.47;96295.64;1716669;81;21126;-78
2021/04/27 11:43:11;;;;;;;7.03;4.67;;;;;;;9.78;37.99;96298.55;1721705;81;21253;-77
2021/04/27 11:45:49;;;;;;;9.30;5.78;;;;;;;9.90;35.19;96288.02;1717134;81;21433;-78
2021/04/27 11:48:21;;;;;;;8.48;5.75;;;;;;;10.01;35.37;96279.47;1711256;81;21110;-78
2021/04/27 11:50:50;;;;;;;8.78;5.47;;;;;;;10.00;35.44;96283.05;1732082;81;22150;-78
2021/04/27 11:53:18;;;;;;;6.65;5.05;;;;;;;10.07;34.54;96278.73;1718054;81;21150;-77